MBS International, MI

2:18 PM EST on January 29, 2015 (GMT -0500)
MBS International | Change Station
CLOSE
Current Station
Airport
Location: Saginaw,
Elevation: 669 ft
Nearby Weather Stations
Active Advisory: Special Statement

Elev 669 ft 43.53 °N, 84.08 °W | Updated 25 minutes ago

Light Snow
Light Snow
31 °F
Feels Like 22 °F
N
10
Wind Variable Wind from NW

Today
High -- | Low -- °F
--% Chance of Precip.
Yesterday
High -- | Low -- °F
Precip. -- in
7:55 AM 5:43 PM
Waxing Gibbous, 76% visible
Pressure 29.77 in
Visibility 1.0 miles
Clouds Few 1000 ft
Mostly Cloudy 2100 ft
Overcast 3800 ft
Windchill 22 °F
Dew Point 26 °F
Humidity 82%
Rainfall 0.04 in
Snow Depth Not available.
UV 1 out of 12
Pollen .10 out of 12
Air Quality Not available.
Flu Activity Not available.
METAR KMBS 291853Z 31009KT 1SM -SN FEW010 BKN021 OVC038 M01/M03 A2975 RMK AO2 SFC VIS 1 1/4 SLP081 P0000 T10061033

More Conditions Fewer Conditions

Pressure 29.77 in
Visibility 1.0 miles
Clouds Few 1000 ft
Mostly Cloudy 2100 ft
Overcast 3800 ft
Windchill 22 °F
Dew Point 26 °F
Humidity 82%
Rainfall 0.04 in
Snow Depth Not available.
UV 1 out of 12
Pollen .10 out of 12
Air Quality Not available.
Flu Activity Not available.
METAR KMBS 291853Z 31009KT 1SM -SN FEW010 BKN021 OVC038 M01/M03 A2975 RMK AO2 SFC VIS 1 1/4 SLP081 P0000 T10061033

More Conditions Fewer Conditions

10-Day Weather Forecast

Almanac

Astronomy

Jan. 29, 2015 Rise Set
Actual Time
Civil Twilight
Nautical Twilight
Astronomical Twilight
Moon
Length of Visible Light
Length of Day
Tomorrow will be .
, % of the Moon is Illuminated

Today's Extremes

State Highs State Lows

Community

WunderPhotos

Upload Photos

1,791,561 photos uploaded!

WunderBlogs® & News

Nearby

Air Quality

  Air Quality AQ Index Pollutant
Not available.

Snow Depth

Station Depth Elevation

Earthquake Activity

City Distance Mag. Time & Date
Minimum magnitude displayed is 2.5.

Coastal Water Temperatures

Place Temperature

Nearby Weather Stations